sensor_id;sensor_type;location;lat;lon;timestamp;P1;durP1;ratioP1;P2;durP2;ratioP2
35699;SDS011;21818;51.078;12.108;2022-07-29T00:00:48;3.35;;;1.75;;
35699;SDS011;21818;51.078;12.108;2022-07-29T00:03:13;4.05;;;1.30;;
35699;SDS011;21818;51.078;12.108;2022-07-29T00:05:39;4.78;;;1.00;;
35699;SDS011;21818;51.078;12.108;2022-07-29T00:08:06;2.60;;;1.10;;
35699;SDS011;21818;51.078;12.108;2022-07-29T00:10:35;6.35;;;1.00;;
35699;SDS011;21818;51.078;12.108;2022-07-29T00:13:01;3.58;;;0.90;;
35699;SDS011;21818;51.078;12.108;2022-07-29T00:15:26;3.88;;;1.25;;
35699;SDS011;21818;51.078;12.108;2022-07-29T00:17:52;7.47;;;1.17;;
35699;SDS011;21818;51.078;12.108;2022-07-29T00:20:18;3.03;;;1.05;;
35699;SDS011;21818;51.078;12.108;2022-07-29T00:22:43;3.63;;;1.40;;
35699;SDS011;21818;51.078;12.108;2022-07-29T00:25:09;3.33;;;1.10;;
35699;SDS011;21818;51.078;12.108;2022-07-29T00:27:35;4.25;;;1.42;;
35699;SDS011;21818;51.078;12.108;2022-07-29T00:30:02;3.25;;;1.35;;
35699;SDS011;21818;51.078;12.108;2022-07-29T00:32:28;3.08;;;1.20;;
35699;SDS011;21818;51.078;12.108;2022-07-29T00:34:54;5.35;;;1.25;;
35699;SDS011;21818;51.078;12.108;2022-07-29T00:37:38;6.47;;;1.42;;
35699;SDS011;21818;51.078;12.108;2022-07-29T00:40:03;2.83;;;1.10;;
35699;SDS011;21818;51.078;12.108;2022-07-29T00:42:29;4.78;;;1.25;;
35699;SDS011;21818;51.078;12.108;2022-07-29T00:44:55;4.90;;;1.27;;
35699;SDS011;21818;51.078;12.108;2022-07-29T00:47:21;4.20;;;1.17;;
35699;SDS011;21818;51.078;12.108;2022-07-29T00:49:46;7.00;;;1.52;;
35699;SDS011;21818;51.078;12.108;2022-07-29T00:52:12;3.83;;;1.33;;
35699;SDS011;21818;51.078;12.108;2022-07-29T00:54:38;5.53;;;1.20;;
35699;SDS011;21818;51.078;12.108;2022-07-29T00:57:05;4.10;;;1.00;;
35699;SDS011;21818;51.078;12.108;2022-07-29T00:59:32;3.17;;;1.02;;
35699;SDS011;21818;51.078;12.108;2022-07-29T01:01:58;4.18;;;1.08;;
35699;SDS011;21818;51.078;12.108;2022-07-29T01:04:24;4.60;;;1.35;;
35699;SDS011;21818;51.078;12.108;2022-07-29T01:06:49;6.90;;;1.10;;
35699;SDS011;21818;51.078;12.108;2022-07-29T01:09:16;4.30;;;1.15;;
35699;SDS011;21818;51.078;12.108;2022-07-29T01:11:43;5.85;;;1.20;;
35699;SDS011;21818;51.078;12.108;2022-07-29T01:14:09;3.22;;;1.20;;
35699;SDS011;21818;51.078;12.108;2022-07-29T01:16:41;3.80;;;1.38;;
35699;SDS011;21818;51.078;12.108;2022-07-29T01:19:22;2.40;;;1.15;;
35699;SDS011;21818;51.078;12.108;2022-07-29T01:30:35;6.00;;;1.35;;
35699;SDS011;21818;51.078;12.108;2022-07-29T01:33:05;4.63;;;1.00;;
35699;SDS011;21818;51.078;12.108;2022-07-29T01:35:40;3.72;;;1.15;;
35699;SDS011;21818;51.078;12.108;2022-07-29T01:38:09;3.17;;;1.20;;
35699;SDS011;21818;51.078;12.108;2022-07-29T01:40:46;7.65;;;1.60;;
35699;SDS011;21818;51.078;12.108;2022-07-29T01:43:17;4.35;;;1.45;;
35699;SDS011;21818;51.078;12.108;2022-07-29T01:48:48;5.32;;;1.65;;
35699;SDS011;21818;51.078;12.108;2022-07-29T01:51:30;4.55;;;1.15;;
35699;SDS011;21818;51.078;12.108;2022-07-29T01:56:33;3.75;;;0.90;;
35699;SDS011;21818;51.078;12.108;2022-07-29T01:59:01;6.95;;;1.67;;
35699;SDS011;21818;51.078;12.108;2022-07-29T02:01:29;6.43;;;1.40;;
35699;SDS011;21818;51.078;12.108;2022-07-29T02:03:57;5.85;;;1.38;;
35699;SDS011;21818;51.078;12.108;2022-07-29T02:06:26;3.33;;;1.10;;
35699;SDS011;21818;51.078;12.108;2022-07-29T02:08:54;10.27;;;1.90;;
35699;SDS011;21818;51.078;12.108;2022-07-29T02:11:23;7.93;;;1.50;;
35699;SDS011;21818;51.078;12.108;2022-07-29T02:13:49;7.47;;;1.65;;
35699;SDS011;21818;51.078;12.108;2022-07-29T02:16:17;7.10;;;1.40;;
35699;SDS011;21818;51.078;12.108;2022-07-29T02:18:46;8.80;;;1.33;;
35699;SDS011;21818;51.078;12.108;2022-07-29T02:21:15;16.10;;;1.50;;
35699;SDS011;21818;51.078;12.108;2022-07-29T02:23:47;5.05;;;1.38;;
35699;SDS011;21818;51.078;12.108;2022-07-29T02:26:14;8.88;;;1.70;;
35699;SDS011;21818;51.078;12.108;2022-07-29T02:28:43;7.13;;;1.80;;
35699;SDS011;21818;51.078;12.108;2022-07-29T02:31:12;6.30;;;1.38;;
35699;SDS011;21818;51.078;12.108;2022-07-29T02:33:38;5.57;;;1.40;;
35699;SDS011;21818;51.078;12.108;2022-07-29T02:36:05;4.13;;;1.42;;
35699;SDS011;21818;51.078;12.108;2022-07-29T02:38:31;5.35;;;1.42;;
35699;SDS011;21818;51.078;12.108;2022-07-29T02:43:48;11.40;;;1.70;;
35699;SDS011;21818;51.078;12.108;2022-07-29T02:46:19;7.03;;;1.38;;
35699;SDS011;21818;51.078;12.108;2022-07-29T02:49:04;5.85;;;1.42;;
35699;SDS011;21818;51.078;12.108;2022-07-29T02:52:12;9.23;;;1.30;;
35699;SDS011;21818;51.078;12.108;2022-07-29T02:54:44;6.82;;;1.90;;
35699;SDS011;21818;51.078;12.108;2022-07-29T02:57:15;8.48;;;1.45;;
35699;SDS011;21818;51.078;12.108;2022-07-29T02:59:48;4.35;;;1.52;;
35699;SDS011;21818;51.078;12.108;2022-07-29T03:04:43;6.78;;;1.33;;
35699;SDS011;21818;51.078;12.108;2022-07-29T03:07:10;7.82;;;1.40;;
35699;SDS011;21818;51.078;12.108;2022-07-29T03:09:40;7.38;;;1.63;;
35699;SDS011;21818;51.078;12.108;2022-07-29T03:12:07;6.22;;;1.23;;
35699;SDS011;21818;51.078;12.108;2022-07-29T03:14:33;3.92;;;1.38;;
35699;SDS011;21818;51.078;12.108;2022-07-29T03:17:00;5.22;;;1.30;;
35699;SDS011;21818;51.078;12.108;2022-07-29T03:19:25;7.95;;;1.80;;
35699;SDS011;21818;51.078;12.108;2022-07-29T03:21:51;4.45;;;1.20;;
35699;SDS011;21818;51.078;12.108;2022-07-29T03:24:50;6.28;;;2.25;;
35699;SDS011;21818;51.078;12.108;2022-07-29T03:27:09;4.85;;;1.40;;
35699;SDS011;21818;51.078;12.108;2022-07-29T03:29:35;6.13;;;1.30;;
35699;SDS011;21818;51.078;12.108;2022-07-29T03:32:01;7.78;;;1.50;;
35699;SDS011;21818;51.078;12.108;2022-07-29T03:34:29;4.00;;;1.30;;
35699;SDS011;21818;51.078;12.108;2022-07-29T03:36:54;5.85;;;1.15;;
35699;SDS011;21818;51.078;12.108;2022-07-29T03:39:21;6.90;;;2.17;;
35699;SDS011;21818;51.078;12.108;2022-07-29T03:41:49;4.97;;;1.20;;
35699;SDS011;21818;51.078;12.108;2022-07-29T03:44:18;4.28;;;1.30;;
35699;SDS011;21818;51.078;12.108;2022-07-29T03:46:46;4.43;;;1.10;;
35699;SDS011;21818;51.078;12.108;2022-07-29T03:49:15;4.72;;;1.38;;
35699;SDS011;21818;51.078;12.108;2022-07-29T03:51:43;2.63;;;1.20;;
35699;SDS011;21818;51.078;12.108;2022-07-29T03:54:09;4.72;;;1.42;;
35699;SDS011;21818;51.078;12.108;2022-07-29T03:56:37;6.80;;;1.50;;
35699;SDS011;21818;51.078;12.108;2022-07-29T03:59:05;1.88;;;1.20;;
35699;SDS011;21818;51.078;12.108;2022-07-29T04:01:32;3.70;;;1.45;;
35699;SDS011;21818;51.078;12.108;2022-07-29T04:03:59;3.85;;;1.60;;
35699;SDS011;21818;51.078;12.108;2022-07-29T04:06:30;3.75;;;1.50;;
35699;SDS011;21818;51.078;12.108;2022-07-29T04:09:09;6.32;;;1.75;;
35699;SDS011;21818;51.078;12.108;2022-07-29T04:11:36;4.18;;;1.60;;
35699;SDS011;21818;51.078;12.108;2022-07-29T04:14:04;6.55;;;1.67;;
35699;SDS011;21818;51.078;12.108;2022-07-29T04:16:29;3.75;;;1.20;;
35699;SDS011;21818;51.078;12.108;2022-07-29T04:18:55;3.65;;;1.05;;
35699;SDS011;21818;51.078;12.108;2022-07-29T04:21:21;4.07;;;1.35;;
35699;SDS011;21818;51.078;12.108;2022-07-29T04:23:46;3.30;;;1.52;;
35699;SDS011;21818;51.078;12.108;2022-07-29T04:26:14;4.97;;;1.52;;
35699;SDS011;21818;51.078;12.108;2022-07-29T04:28:43;5.03;;;1.05;;
35699;SDS011;21818;51.078;12.108;2022-07-29T04:31:09;6.40;;;1.35;;
35699;SDS011;21818;51.078;12.108;2022-07-29T04:33:42;3.90;;;1.40;;
35699;SDS011;21818;51.078;12.108;2022-07-29T04:36:08;3.30;;;1.30;;
35699;SDS011;21818;51.078;12.108;2022-07-29T04:38:35;3.70;;;1.20;;
35699;SDS011;21818;51.078;12.108;2022-07-29T04:41:01;4.45;;;1.63;;
35699;SDS011;21818;51.078;12.108;2022-07-29T04:43:27;6.55;;;1.63;;
35699;SDS011;21818;51.078;12.108;2022-07-29T04:45:52;11.02;;;2.17;;
35699;SDS011;21818;51.078;12.108;2022-07-29T04:48:18;5.35;;;1.67;;
35699;SDS011;21818;51.078;12.108;2022-07-29T04:50:44;9.23;;;2.80;;
35699;SDS011;21818;51.078;12.108;2022-07-29T04:53:09;6.68;;;1.77;;
35699;SDS011;21818;51.078;12.108;2022-07-29T04:55:35;8.60;;;1.50;;
35699;SDS011;21818;51.078;12.108;2022-07-29T04:58:01;5.88;;;2.13;;
35699;SDS011;21818;51.078;12.108;2022-07-29T05:00:27;18.00;;;1.92;;
35699;SDS011;21818;51.078;12.108;2022-07-29T05:02:52;6.80;;;1.48;;
35699;SDS011;21818;51.078;12.108;2022-07-29T05:05:18;6.65;;;1.80;;
35699;SDS011;21818;51.078;12.108;2022-07-29T05:07:44;11.02;;;2.10;;
35699;SDS011;21818;51.078;12.108;2022-07-29T05:10:09;4.45;;;1.92;;
35699;SDS011;21818;51.078;12.108;2022-07-29T05:12:36;4.25;;;1.52;;
35699;SDS011;21818;51.078;12.108;2022-07-29T05:15:02;7.75;;;1.40;;
35699;SDS011;21818;51.078;12.108;2022-07-29T05:17:28;8.02;;;2.10;;
35699;SDS011;21818;51.078;12.108;2022-07-29T05:19:53;5.65;;;1.70;;
35699;SDS011;21818;51.078;12.108;2022-07-29T05:22:19;8.50;;;1.73;;
35699;SDS011;21818;51.078;12.108;2022-07-29T05:24:45;7.63;;;1.60;;
35699;SDS011;21818;51.078;12.108;2022-07-29T05:27:10;8.13;;;1.50;;
35699;SDS011;21818;51.078;12.108;2022-07-29T05:29:36;8.40;;;1.58;;
35699;SDS011;21818;51.078;12.108;2022-07-29T05:32:02;7.00;;;1.70;;
35699;SDS011;21818;51.078;12.108;2022-07-29T05:34:28;4.72;;;1.85;;
35699;SDS011;21818;51.078;12.108;2022-07-29T05:36:54;5.05;;;1.50;;
35699;SDS011;21818;51.078;12.108;2022-07-29T05:39:19;7.88;;;1.80;;
35699;SDS011;21818;51.078;12.108;2022-07-29T05:41:45;6.07;;;1.50;;
35699;SDS011;21818;51.078;12.108;2022-07-29T05:44:11;8.88;;;2.70;;
35699;SDS011;21818;51.078;12.108;2022-07-29T05:46:38;10.68;;;1.98;;
35699;SDS011;21818;51.078;12.108;2022-07-29T05:49:03;8.13;;;1.70;;
35699;SDS011;21818;51.078;12.108;2022-07-29T05:51:31;12.25;;;1.75;;
35699;SDS011;21818;51.078;12.108;2022-07-29T05:53:57;6.72;;;1.88;;
35699;SDS011;21818;51.078;12.108;2022-07-29T05:56:22;8.07;;;2.00;;
35699;SDS011;21818;51.078;12.108;2022-07-29T05:58:48;13.27;;;2.00;;
35699;SDS011;21818;51.078;12.108;2022-07-29T06:01:13;9.70;;;1.60;;
35699;SDS011;21818;51.078;12.108;2022-07-29T06:03:39;5.80;;;1.73;;
35699;SDS011;21818;51.078;12.108;2022-07-29T06:06:06;5.25;;;1.50;;
35699;SDS011;21818;51.078;12.108;2022-07-29T06:08:32;7.93;;;1.83;;
35699;SDS011;21818;51.078;12.108;2022-07-29T06:10:58;7.75;;;1.80;;
35699;SDS011;21818;51.078;12.108;2022-07-29T06:13:24;7.82;;;2.00;;
35699;SDS011;21818;51.078;12.108;2022-07-29T06:15:50;7.55;;;2.92;;
35699;SDS011;21818;51.078;12.108;2022-07-29T06:18:16;10.10;;;1.70;;
35699;SDS011;21818;51.078;12.108;2022-07-29T06:20:41;8.68;;;1.80;;
35699;SDS011;21818;51.078;12.108;2022-07-29T06:23:07;11.20;;;2.30;;
35699;SDS011;21818;51.078;12.108;2022-07-29T06:25:33;14.57;;;2.53;;
35699;SDS011;21818;51.078;12.108;2022-07-29T06:28:00;10.15;;;1.67;;
35699;SDS011;21818;51.078;12.108;2022-07-29T06:30:26;8.90;;;2.05;;
35699;SDS011;21818;51.078;12.108;2022-07-29T06:32:52;8.50;;;1.90;;
35699;SDS011;21818;51.078;12.108;2022-07-29T06:35:17;10.40;;;2.30;;
35699;SDS011;21818;51.078;12.108;2022-07-29T06:37:43;10.43;;;1.60;;
35699;SDS011;21818;51.078;12.108;2022-07-29T06:40:09;17.65;;;2.30;;
35699;SDS011;21818;51.078;12.108;2022-07-29T06:42:53;7.57;;;1.73;;
35699;SDS011;21818;51.078;12.108;2022-07-29T06:45:19;10.45;;;2.05;;
35699;SDS011;21818;51.078;12.108;2022-07-29T06:47:44;5.70;;;1.88;;
35699;SDS011;21818;51.078;12.108;2022-07-29T06:50:10;8.02;;;1.95;;
35699;SDS011;21818;51.078;12.108;2022-07-29T06:52:39;9.90;;;2.40;;
35699;SDS011;21818;51.078;12.108;2022-07-29T06:55:05;6.30;;;1.90;;
35699;SDS011;21818;51.078;12.108;2022-07-29T06:57:32;13.77;;;4.13;;
35699;SDS011;21818;51.078;12.108;2022-07-29T06:59:57;8.15;;;1.77;;
35699;SDS011;21818;51.078;12.108;2022-07-29T07:02:23;8.13;;;1.52;;
35699;SDS011;21818;51.078;12.108;2022-07-29T07:04:48;9.60;;;2.03;;
35699;SDS011;21818;51.078;12.108;2022-07-29T07:07:14;10.48;;;2.10;;
35699;SDS011;21818;51.078;12.108;2022-07-29T07:09:40;9.32;;;2.10;;
35699;SDS011;21818;51.078;12.108;2022-07-29T07:12:05;8.32;;;1.85;;
35699;SDS011;21818;51.078;12.108;2022-07-29T07:14:31;8.45;;;2.22;;
35699;SDS011;21818;51.078;12.108;2022-07-29T07:16:56;4.78;;;2.42;;
35699;SDS011;21818;51.078;12.108;2022-07-29T07:19:22;7.13;;;2.05;;
35699;SDS011;21818;51.078;12.108;2022-07-29T07:21:48;6.15;;;2.60;;
35699;SDS011;21818;51.078;12.108;2022-07-29T07:24:13;8.38;;;2.85;;
35699;SDS011;21818;51.078;12.108;2022-07-29T07:26:39;9.00;;;2.65;;
35699;SDS011;21818;51.078;12.108;2022-07-29T07:29:05;10.50;;;2.30;;
35699;SDS011;21818;51.078;12.108;2022-07-29T07:31:31;7.88;;;2.97;;
35699;SDS011;21818;51.078;12.108;2022-07-29T07:33:56;7.82;;;2.20;;
35699;SDS011;21818;51.078;12.108;2022-07-29T07:36:22;5.78;;;1.90;;
35699;SDS011;21818;51.078;12.108;2022-07-29T07:38:48;4.28;;;1.52;;
35699;SDS011;21818;51.078;12.108;2022-07-29T07:41:14;6.75;;;1.92;;
35699;SDS011;21818;51.078;12.108;2022-07-29T07:43:39;6.47;;;1.95;;
35699;SDS011;21818;51.078;12.108;2022-07-29T07:46:05;7.95;;;2.10;;
35699;SDS011;21818;51.078;12.108;2022-07-29T07:48:31;9.35;;;1.83;;
35699;SDS011;21818;51.078;12.108;2022-07-29T07:50:56;7.03;;;1.80;;
35699;SDS011;21818;51.078;12.108;2022-07-29T07:53:22;7.95;;;1.85;;
35699;SDS011;21818;51.078;12.108;2022-07-29T07:55:48;7.07;;;2.25;;
35699;SDS011;21818;51.078;12.108;2022-07-29T07:58:13;6.97;;;2.20;;
35699;SDS011;21818;51.078;12.108;2022-07-29T08:00:39;6.65;;;2.00;;
35699;SDS011;21818;51.078;12.108;2022-07-29T08:03:04;9.27;;;2.13;;
35699;SDS011;21818;51.078;12.108;2022-07-29T08:05:30;4.68;;;1.85;;
35699;SDS011;21818;51.078;12.108;2022-07-29T08:07:56;4.10;;;1.77;;
35699;SDS011;21818;51.078;12.108;2022-07-29T08:10:21;5.65;;;2.15;;
35699;SDS011;21818;51.078;12.108;2022-07-29T08:13:06;8.55;;;2.00;;
35699;SDS011;21818;51.078;12.108;2022-07-29T08:15:32;5.20;;;1.50;;
35699;SDS011;21818;51.078;12.108;2022-07-29T08:17:58;8.75;;;2.00;;
35699;SDS011;21818;51.078;12.108;2022-07-29T08:20:24;6.38;;;1.70;;
35699;SDS011;21818;51.078;12.108;2022-07-29T08:22:49;6.70;;;2.13;;
35699;SDS011;21818;51.078;12.108;2022-07-29T08:25:15;6.13;;;1.75;;
35699;SDS011;21818;51.078;12.108;2022-07-29T08:27:42;2.75;;;1.45;;
35699;SDS011;21818;51.078;12.108;2022-07-29T08:30:08;5.32;;;1.60;;
35699;SDS011;21818;51.078;12.108;2022-07-29T08:32:35;7.30;;;1.67;;
35699;SDS011;21818;51.078;12.108;2022-07-29T08:35:01;4.57;;;1.80;;
35699;SDS011;21818;51.078;12.108;2022-07-29T08:37:26;5.75;;;1.60;;
35699;SDS011;21818;51.078;12.108;2022-07-29T08:39:52;7.55;;;2.20;;
35699;SDS011;21818;51.078;12.108;2022-07-29T08:42:17;7.63;;;2.30;;
35699;SDS011;21818;51.078;12.108;2022-07-29T08:44:43;5.43;;;1.90;;
35699;SDS011;21818;51.078;12.108;2022-07-29T08:47:09;5.07;;;1.80;;
35699;SDS011;21818;51.078;12.108;2022-07-29T08:49:38;3.70;;;1.70;;
35699;SDS011;21818;51.078;12.108;2022-07-29T08:52:04;4.90;;;1.58;;
35699;SDS011;21818;51.078;12.108;2022-07-29T08:54:31;4.50;;;1.65;;
35699;SDS011;21818;51.078;12.108;2022-07-29T08:56:57;4.05;;;1.20;;
35699;SDS011;21818;51.078;12.108;2022-07-29T08:59:25;7.50;;;1.90;;
35699;SDS011;21818;51.078;12.108;2022-07-29T09:01:53;5.43;;;1.63;;
35699;SDS011;21818;51.078;12.108;2022-07-29T09:04:19;3.25;;;1.27;;
35699;SDS011;21818;51.078;12.108;2022-07-29T09:06:46;4.60;;;1.85;;
35699;SDS011;21818;51.078;12.108;2022-07-29T09:09:14;5.05;;;1.85;;
35699;SDS011;21818;51.078;12.108;2022-07-29T09:11:40;5.18;;;1.95;;
35699;SDS011;21818;51.078;12.108;2022-07-29T09:14:07;4.82;;;1.25;;
35699;SDS011;21818;51.078;12.108;2022-07-29T09:17:06;4.70;;;1.73;;
35699;SDS011;21818;51.078;12.108;2022-07-29T09:19:29;8.10;;;1.88;;
35699;SDS011;21818;51.078;12.108;2022-07-29T09:21:57;5.70;;;1.77;;
35699;SDS011;21818;51.078;12.108;2022-07-29T09:27:04;5.28;;;1.73;;
35699;SDS011;21818;51.078;12.108;2022-07-29T09:29:57;4.82;;;1.60;;
35699;SDS011;21818;51.078;12.108;2022-07-29T09:32:26;3.53;;;1.83;;
35699;SDS011;21818;51.078;12.108;2022-07-29T09:37:45;3.67;;;1.50;;
35699;SDS011;21818;51.078;12.108;2022-07-29T09:40:17;4.63;;;1.70;;
35699;SDS011;21818;51.078;12.108;2022-07-29T09:42:45;3.78;;;1.63;;
35699;SDS011;21818;51.078;12.108;2022-07-29T09:45:11;5.40;;;1.70;;
35699;SDS011;21818;51.078;12.108;2022-07-29T09:47:45;5.35;;;1.73;;
35699;SDS011;21818;51.078;12.108;2022-07-29T09:50:13;4.82;;;1.63;;
35699;SDS011;21818;51.078;12.108;2022-07-29T09:52:49;3.25;;;1.60;;
35699;SDS011;21818;51.078;12.108;2022-07-29T09:55:16;4.90;;;2.00;;
35699;SDS011;21818;51.078;12.108;2022-07-29T09:57:43;5.07;;;2.00;;
35699;SDS011;21818;51.078;12.108;2022-07-29T10:00:13;4.03;;;1.60;;
35699;SDS011;21818;51.078;12.108;2022-07-29T10:02:43;5.15;;;1.88;;
35699;SDS011;21818;51.078;12.108;2022-07-29T10:05:18;3.50;;;1.65;;
35699;SDS011;21818;51.078;12.108;2022-07-29T10:07:55;3.75;;;1.50;;
35699;SDS011;21818;51.078;12.108;2022-07-29T10:10:25;3.20;;;1.30;;
35699;SDS011;21818;51.078;12.108;2022-07-29T10:12:56;5.78;;;1.63;;
35699;SDS011;21818;51.078;12.108;2022-07-29T10:15:23;3.58;;;1.60;;
35699;SDS011;21818;51.078;12.108;2022-07-29T10:17:51;2.35;;;1.10;;
35699;SDS011;21818;51.078;12.108;2022-07-29T10:20:17;5.53;;;1.50;;
35699;SDS011;21818;51.078;12.108;2022-07-29T10:22:44;2.80;;;1.20;;
35699;SDS011;21818;51.078;12.108;2022-07-29T10:25:11;4.18;;;1.92;;
35699;SDS011;21818;51.078;12.108;2022-07-29T10:27:38;2.75;;;1.38;;
35699;SDS011;21818;51.078;12.108;2022-07-29T10:30:05;3.47;;;1.55;;
35699;SDS011;21818;51.078;12.108;2022-07-29T10:35:21;3.45;;;1.80;;
35699;SDS011;21818;51.078;12.108;2022-07-29T10:38:41;4.95;;;1.52;;
35699;SDS011;21818;51.078;12.108;2022-07-29T10:43:51;5.97;;;1.88;;
35699;SDS011;21818;51.078;12.108;2022-07-29T10:46:23;4.50;;;1.90;;
35699;SDS011;21818;51.078;12.108;2022-07-29T10:59:49;5.15;;;1.45;;
35699;SDS011;21818;51.078;12.108;2022-07-29T11:05:05;3.67;;;1.55;;
35699;SDS011;21818;51.078;12.108;2022-07-29T11:07:33;3.13;;;1.30;;
35699;SDS011;21818;51.078;12.108;2022-07-29T11:15:02;3.28;;;1.13;;
35699;SDS011;21818;51.078;12.108;2022-07-29T11:17:30;2.97;;;1.08;;
35699;SDS011;21818;51.078;12.108;2022-07-29T11:23:19;2.70;;;1.27;;
35699;SDS011;21818;51.078;12.108;2022-07-29T11:29:02;3.13;;;1.30;;
35699;SDS011;21818;51.078;12.108;2022-07-29T11:31:42;4.28;;;1.55;;
35699;SDS011;21818;51.078;12.108;2022-07-29T11:44:54;3.63;;;1.55;;
35699;SDS011;21818;51.078;12.108;2022-07-29T11:47:21;4.68;;;1.52;;
35699;SDS011;21818;51.078;12.108;2022-07-29T11:49:47;2.67;;;1.30;;
35699;SDS011;21818;51.078;12.108;2022-07-29T11:52:14;4.97;;;1.58;;
35699;SDS011;21818;51.078;12.108;2022-07-29T11:54:42;2.88;;;1.33;;
35699;SDS011;21818;51.078;12.108;2022-07-29T11:57:08;3.53;;;1.50;;
35699;SDS011;21818;51.078;12.108;2022-07-29T11:59:40;2.78;;;1.30;;
35699;SDS011;21818;51.078;12.108;2022-07-29T12:02:08;3.30;;;1.15;;
35699;SDS011;21818;51.078;12.108;2022-07-29T12:04:47;2.05;;;1.02;;
35699;SDS011;21818;51.078;12.108;2022-07-29T12:07:16;2.47;;;1.50;;
35699;SDS011;21818;51.078;12.108;2022-07-29T12:09:49;4.60;;;1.52;;
35699;SDS011;21818;51.078;12.108;2022-07-29T12:12:16;8.48;;;1.67;;
35699;SDS011;21818;51.078;12.108;2022-07-29T12:14:42;2.92;;;1.80;;
35699;SDS011;21818;51.078;12.108;2022-07-29T12:17:34;2.70;;;1.20;;
35699;SDS011;21818;51.078;12.108;2022-07-29T12:19:59;2.97;;;1.30;;
35699;SDS011;21818;51.078;12.108;2022-07-29T12:22:32;2.28;;;1.17;;
35699;SDS011;21818;51.078;12.108;2022-07-29T12:25:03;2.30;;;1.33;;
35699;SDS011;21818;51.078;12.108;2022-07-29T12:27:31;3.00;;;1.30;;
35699;SDS011;21818;51.078;12.108;2022-07-29T12:29:58;2.55;;;1.30;;
35699;SDS011;21818;51.078;12.108;2022-07-29T12:32:35;2.10;;;1.10;;
35699;SDS011;21818;51.078;12.108;2022-07-29T12:35:05;3.13;;;1.50;;
35699;SDS011;21818;51.078;12.108;2022-07-29T12:37:34;3.58;;;1.23;;
35699;SDS011;21818;51.078;12.108;2022-07-29T12:40:02;3.70;;;1.40;;
35699;SDS011;21818;51.078;12.108;2022-07-29T12:42:29;3.25;;;1.38;;
35699;SDS011;21818;51.078;12.108;2022-07-29T12:44:54;2.80;;;1.23;;
35699;SDS011;21818;51.078;12.108;2022-07-29T12:47:20;2.55;;;1.30;;
35699;SDS011;21818;51.078;12.108;2022-07-29T12:49:46;4.03;;;1.40;;
35699;SDS011;21818;51.078;12.108;2022-07-29T12:52:29;4.38;;;1.83;;
35699;SDS011;21818;51.078;12.108;2022-07-29T12:54:56;3.20;;;1.50;;
35699;SDS011;21818;51.078;12.108;2022-07-29T12:57:22;3.63;;;1.30;;
35699;SDS011;21818;51.078;12.108;2022-07-29T13:00:07;3.63;;;1.52;;
35699;SDS011;21818;51.078;12.108;2022-07-29T13:02:36;1.77;;;1.05;;
35699;SDS011;21818;51.078;12.108;2022-07-29T13:05:02;3.15;;;1.23;;
35699;SDS011;21818;51.078;12.108;2022-07-29T13:07:30;2.97;;;1.20;;
35699;SDS011;21818;51.078;12.108;2022-07-29T13:10:19;2.30;;;1.20;;
35699;SDS011;21818;51.078;12.108;2022-07-29T13:13:05;1.80;;;1.00;;
35699;SDS011;21818;51.078;12.108;2022-07-29T13:15:36;2.78;;;1.45;;
35699;SDS011;21818;51.078;12.108;2022-07-29T13:18:04;3.08;;;1.15;;
35699;SDS011;21818;51.078;12.108;2022-07-29T13:20:51;2.92;;;1.40;;
35699;SDS011;21818;51.078;12.108;2022-07-29T13:23:16;3.92;;;1.60;;
35699;SDS011;21818;51.078;12.108;2022-07-29T13:25:42;1.88;;;0.98;;
35699;SDS011;21818;51.078;12.108;2022-07-29T13:28:08;2.97;;;1.20;;
35699;SDS011;21818;51.078;12.108;2022-07-29T13:30:34;2.95;;;1.42;;
35699;SDS011;21818;51.078;12.108;2022-07-29T13:32:59;2.60;;;1.23;;
35699;SDS011;21818;51.078;12.108;2022-07-29T13:35:25;1.77;;;0.98;;
35699;SDS011;21818;51.078;12.108;2022-07-29T13:37:51;2.97;;;1.40;;
35699;SDS011;21818;51.078;12.108;2022-07-29T13:40:17;2.50;;;1.58;;
35699;SDS011;21818;51.078;12.108;2022-07-29T13:42:42;3.17;;;1.50;;
35699;SDS011;21818;51.078;12.108;2022-07-29T13:45:09;3.22;;;1.67;;
35699;SDS011;21818;51.078;12.108;2022-07-29T13:47:35;2.63;;;1.33;;
35699;SDS011;21818;51.078;12.108;2022-07-29T13:50:02;2.80;;;1.38;;
35699;SDS011;21818;51.078;12.108;2022-07-29T13:52:29;2.40;;;1.30;;
35699;SDS011;21818;51.078;12.108;2022-07-29T13:54:55;2.40;;;1.20;;
35699;SDS011;21818;51.078;12.108;2022-07-29T13:57:21;2.35;;;1.10;;
35699;SDS011;21818;51.078;12.108;2022-07-29T13:59:46;1.58;;;1.00;;
35699;SDS011;21818;51.078;12.108;2022-07-29T14:02:12;3.25;;;1.05;;
35699;SDS011;21818;51.078;12.108;2022-07-29T14:04:38;2.10;;;1.15;;
35699;SDS011;21818;51.078;12.108;2022-07-29T14:07:04;2.85;;;1.20;;
35699;SDS011;21818;51.078;12.108;2022-07-29T14:09:30;2.95;;;1.10;;
35699;SDS011;21818;51.078;12.108;2022-07-29T14:11:55;2.78;;;1.25;;
35699;SDS011;21818;51.078;12.108;2022-07-29T14:14:21;1.80;;;0.85;;
35699;SDS011;21818;51.078;12.108;2022-07-29T14:16:47;1.73;;;1.10;;
35699;SDS011;21818;51.078;12.108;2022-07-29T14:19:12;2.63;;;1.40;;
35699;SDS011;21818;51.078;12.108;2022-07-29T14:21:38;3.42;;;1.48;;
35699;SDS011;21818;51.078;12.108;2022-07-29T14:24:04;1.30;;;1.00;;
35699;SDS011;21818;51.078;12.108;2022-07-29T14:26:30;2.25;;;1.27;;
35699;SDS011;21818;51.078;12.108;2022-07-29T14:28:56;2.20;;;1.00;;
35699;SDS011;21818;51.078;12.108;2022-07-29T14:31:22;1.60;;;1.00;;
35699;SDS011;21818;51.078;12.108;2022-07-29T14:33:47;2.67;;;0.98;;
35699;SDS011;21818;51.078;12.108;2022-07-29T14:36:13;2.45;;;1.02;;
35699;SDS011;21818;51.078;12.108;2022-07-29T14:38:39;2.75;;;1.50;;
35699;SDS011;21818;51.078;12.108;2022-07-29T14:41:05;2.83;;;1.20;;
35699;SDS011;21818;51.078;12.108;2022-07-29T14:43:32;2.67;;;1.08;;
35699;SDS011;21818;51.078;12.108;2022-07-29T14:45:59;1.88;;;1.10;;
35699;SDS011;21818;51.078;12.108;2022-07-29T14:48:25;1.40;;;0.95;;
35699;SDS011;21818;51.078;12.108;2022-07-29T14:50:51;2.40;;;0.95;;
35699;SDS011;21818;51.078;12.108;2022-07-29T14:53:16;3.47;;;1.55;;
35699;SDS011;21818;51.078;12.108;2022-07-29T14:55:42;1.92;;;1.15;;
35699;SDS011;21818;51.078;12.108;2022-07-29T14:58:08;1.77;;;1.05;;
35699;SDS011;21818;51.078;12.108;2022-07-29T15:00:34;2.88;;;1.60;;
35699;SDS011;21818;51.078;12.108;2022-07-29T15:03:01;3.33;;;1.05;;
35699;SDS011;21818;51.078;12.108;2022-07-29T15:05:27;1.65;;;0.95;;
35699;SDS011;21818;51.078;12.108;2022-07-29T15:07:53;2.10;;;1.13;;
35699;SDS011;21818;51.078;12.108;2022-07-29T15:10:19;1.35;;;1.02;;
35699;SDS011;21818;51.078;12.108;2022-07-29T15:12:44;1.60;;;1.10;;
35699;SDS011;21818;51.078;12.108;2022-07-29T15:15:10;2.17;;;1.30;;
35699;SDS011;21818;51.078;12.108;2022-07-29T15:17:36;2.20;;;1.10;;
35699;SDS011;21818;51.078;12.108;2022-07-29T15:20:02;1.98;;;1.10;;
35699;SDS011;21818;51.078;12.108;2022-07-29T15:22:28;1.27;;;0.95;;
35699;SDS011;21818;51.078;12.108;2022-07-29T15:24:54;1.88;;;1.00;;
35699;SDS011;21818;51.078;12.108;2022-07-29T15:27:19;1.70;;;1.00;;
35699;SDS011;21818;51.078;12.108;2022-07-29T15:29:45;1.90;;;1.15;;
35699;SDS011;21818;51.078;12.108;2022-07-29T15:32:10;2.35;;;1.38;;
35699;SDS011;21818;51.078;12.108;2022-07-29T15:34:36;2.22;;;1.10;;
35699;SDS011;21818;51.078;12.108;2022-07-29T15:37:03;2.22;;;1.02;;
35699;SDS011;21818;51.078;12.108;2022-07-29T15:39:29;2.22;;;1.23;;
35699;SDS011;21818;51.078;12.108;2022-07-29T15:41:55;2.33;;;1.25;;
35699;SDS011;21818;51.078;12.108;2022-07-29T15:44:21;2.00;;;1.00;;